Time;durP1;ratioP1;P1;durP2;ratioP2;P2;SDS_P1;SDS_P2;PMS_P1;PMS_P2;Temp;Humidity;BMP_temperature;BMP_pressure;BME280_temperature;BME280_humidity;BME280_pressure;Samples;Min_cycle;Max_cycle;Signal;HPM_P1;HPM_P2
2022/10/12 00:02:04;;;;;;;11.30;7.05;;;;;;;;;;5077695;28;20113;-73
2022/10/12 00:04:30;;;;;;;7.47;6.70;;;;;;;;;;5077881;28;20045;-73
2022/10/12 00:06:56;;;;;;;7.28;6.45;;;;;;;;;;5077472;28;20477;-73
2022/10/12 00:09:23;;;;;;;9.73;6.15;;;;;;;;;;5077903;28;20050;-73
2022/10/12 00:11:49;;;;;;;8.23;6.43;;;;;;;;;;5077674;28;20044;-73
2022/10/12 00:14:15;;;;;;;8.02;6.32;;;;;;;;;;5077558;28;20493;-73
2022/10/12 00:16:41;;;;;;;7.63;6.22;;;;;;;;;;5077662;28;20075;-73
2022/10/12 00:19:07;;;;;;;10.25;6.35;;;;;;;;;;5077605;28;20064;-73
2022/10/12 00:21:33;;;;;;;8.50;6.18;;;;;;;;;;5078108;28;20123;-73
2022/10/12 00:24:00;;;;;;;9.68;6.18;;;;;;;;;;5077904;28;20151;-73
2022/10/12 00:26:27;;;;;;;7.03;5.68;;;;;;;;;;5077379;28;20085;-73
2022/10/12 00:28:55;;;;;;;10.85;6.60;;;;;;;;;;5076981;28;20438;-73
2022/10/12 00:31:21;;;;;;;7.78;6.43;;;;;;;;;;5077302;28;20495;-73
2022/10/12 00:33:48;;;;;;;13.25;6.80;;;;;;;;;;5077476;28;20041;-73
2022/10/12 00:36:15;;;;;;;10.57;6.35;;;;;;;;;;5077135;28;20041;-73
2022/10/12 00:38:41;;;;;;;9.30;6.25;;;;;;;;;;5077342;28;20097;-73
2022/10/12 00:41:07;;;;;;;10.00;5.95;;;;;;;;;;5077517;28;20040;-73
2022/10/12 00:43:37;;;;;;;6.57;5.95;;;;;;;;;;5076098;28;20090;-73
2022/10/12 00:46:09;;;;;;;8.05;6.35;;;;;;;;;;5077222;28;20116;-73
2022/10/12 00:48:35;;;;;;;9.77;6.55;;;;;;;;;;5077278;28;20045;-73
2022/10/12 00:51:02;;;;;;;9.35;6.32;;;;;;;;;;5076781;28;20058;-73
2022/10/12 00:53:32;;;;;;;9.82;6.45;;;;;;;;;;5077116;28;20048;-73
2022/10/12 00:56:00;;;;;;;8.52;6.18;;;;;;;;;;5077058;28;20055;-73
2022/10/12 00:58:30;;;;;;;8.43;6.40;;;;;;;;;;5076778;28;20040;-73
2022/10/12 01:00:56;;;;;;;6.85;6.13;;;;;;;;;;5077470;28;20102;-73
2022/10/12 01:03:22;;;;;;;6.50;5.90;;;;;;;;;;5076956;28;20048;-73
2022/10/12 01:05:48;;;;;;;7.45;6.03;;;;;;;;;;5077108;28;20128;-73
2022/10/12 01:08:14;;;;;;;8.95;6.70;;;;;;;;;;5077114;28;20044;-73
2022/10/12 01:10:41;;;;;;;8.25;6.07;;;;;;;;;;5077024;28;20044;-73
2022/10/12 01:13:07;;;;;;;11.10;6.78;;;;;;;;;;5076630;28;20056;-73
2022/10/12 01:15:35;;;;;;;8.05;5.80;;;;;;;;;;5075592;28;20388;-73
2022/10/12 01:18:01;;;;;;;8.40;6.20;;;;;;;;;;5076835;28;20062;-73
2022/10/12 01:20:27;;;;;;;7.45;5.65;;;;;;;;;;5076848;28;20043;-73
2022/10/12 01:22:53;;;;;;;8.77;5.10;;;;;;;;;;5076972;28;20068;-73
2022/10/12 01:25:35;;;;;;;9.65;5.72;;;;;;;;;;5076736;28;20040;-73
2022/10/12 01:28:05;;;;;;;11.20;6.13;;;;;;;;;;5076750;28;20041;-73
2022/10/12 01:30:36;;;;;;;10.15;5.60;;;;;;;;;;5077176;28;20086;-73
2022/10/12 01:33:10;;;;;;;6.85;5.35;;;;;;;;;;5076483;28;20051;-73
2022/10/12 01:35:55;;;;;;;8.95;5.82;;;;;;;;;;5076836;28;20044;-73
2022/10/12 01:38:27;;;;;;;6.90;5.30;;;;;;;;;;5076463;28;20130;-73
2022/10/12 01:41:01;;;;;;;6.30;5.50;;;;;;;;;;5076934;28;20040;-73
2022/10/12 01:43:34;;;;;;;10.18;5.70;;;;;;;;;;5075861;28;20036;-73
2022/10/12 01:46:07;;;;;;;9.93;5.90;;;;;;;;;;5076835;28;20044;-73
2022/10/12 01:48:34;;;;;;;6.25;5.65;;;;;;;;;;5076183;28;20051;-73
2022/10/12 01:51:02;;;;;;;7.15;5.13;;;;;;;;;;5075912;28;20040;-73
2022/10/12 01:53:37;;;;;;;8.52;5.53;;;;;;;;;;5075467;28;20534;-73
2022/10/12 01:56:03;;;;;;;7.63;5.05;;;;;;;;;;5075236;28;20075;-73
2022/10/12 01:58:48;;;;;;;10.00;5.00;;;;;;;;;;5075771;28;20492;-73
2022/10/12 02:01:38;;;;;;;7.47;5.07;;;;;;;;;;5075644;28;20044;-73
2022/10/12 02:04:10;;;;;;;8.13;5.60;;;;;;;;;;5076014;28;20117;-73
2022/10/12 02:06:42;;;;;;;10.00;5.53;;;;;;;;;;5075578;28;20052;-73
2022/10/12 02:09:12;;;;;;;14.20;5.18;;;;;;;;;;5075493;28;20135;-73
2022/10/12 02:11:40;;;;;;;7.18;4.93;;;;;;;;;;5075620;28;20051;-73
2022/10/12 02:14:14;;;;;;;5.70;5.18;;;;;;;;;;5075283;28;20403;-73
2022/10/12 02:16:43;;;;;;;8.95;5.10;;;;;;;;;;5075698;28;20047;-73
2022/10/12 02:19:12;;;;;;;7.22;5.30;;;;;;;;;;5075592;28;20055;-73
2022/10/12 02:21:38;;;;;;;6.65;5.07;;;;;;;;;;5075311;28;20033;-73
2022/10/12 02:24:06;;;;;;;10.18;6.13;;;;;;;;;;5075420;28;20199;-73
2022/10/12 02:26:34;;;;;;;8.50;5.10;;;;;;;;;;5074906;28;20050;-73
2022/10/12 02:29:01;;;;;;;6.68;5.10;;;;;;;;;;5074948;28;20040;-73
2022/10/12 02:31:36;;;;;;;5.78;4.88;;;;;;;;;;5075033;28;20097;-73
2022/10/12 02:34:11;;;;;;;6.63;4.93;;;;;;;;;;5074851;28;20048;-73
2022/10/12 02:36:40;;;;;;;7.35;5.30;;;;;;;;;;5074727;28;20040;-73
2022/10/12 02:39:18;;;;;;;8.43;5.00;;;;;;;;;;5074646;28;20056;-73
2022/10/12 02:41:47;;;;;;;9.52;5.35;;;;;;;;;;5074734;28;20044;-73
2022/10/12 02:44:15;;;;;;;9.32;5.38;;;;;;;;;;5074645;28;20097;-73
2022/10/12 02:46:42;;;;;;;8.50;4.97;;;;;;;;;;5075055;28;20052;-73
2022/10/12 02:49:09;;;;;;;12.13;4.93;;;;;;;;;;5074777;28;20032;-73
2022/10/12 02:51:36;;;;;;;13.65;5.70;;;;;;;;;;5075033;28;20048;-73
2022/10/12 02:54:02;;;;;;;9.65;4.63;;;;;;;;;;5074828;28;20051;-73
2022/10/12 02:56:29;;;;;;;8.10;5.50;;;;;;;;;;5074303;28;20048;-73
2022/10/12 02:58:55;;;;;;;6.80;4.97;;;;;;;;;;5074605;28;20036;-73
2022/10/12 03:01:21;;;;;;;8.50;5.47;;;;;;;;;;5074756;28;20044;-73
2022/10/12 03:03:47;;;;;;;8.65;5.95;;;;;;;;;;5075093;28;20051;-73
2022/10/12 03:06:13;;;;;;;5.93;4.65;;;;;;;;;;5074277;28;20044;-73
2022/10/12 03:08:39;;;;;;;8.80;5.00;;;;;;;;;;5074124;28;20059;-73
2022/10/12 03:11:06;;;;;;;7.85;5.05;;;;;;;;;;5074303;28;20040;-73
2022/10/12 03:13:33;;;;;;;6.85;5.10;;;;;;;;;;5074454;28;20072;-73
2022/10/12 03:16:03;;;;;;;6.15;4.93;;;;;;;;;;5074550;28;20043;-73
2022/10/12 03:18:29;;;;;;;8.95;5.15;;;;;;;;;;5074915;28;20036;-73
2022/10/12 03:20:55;;;;;;;10.25;5.20;;;;;;;;;;5074744;28;20036;-73
2022/10/12 03:23:21;;;;;;;7.95;5.20;;;;;;;;;;5074601;28;20175;-73
2022/10/12 03:25:48;;;;;;;5.85;5.13;;;;;;;;;;5073156;28;20067;-73
2022/10/12 03:28:14;;;;;;;9.13;5.63;;;;;;;;;;5073505;28;20098;-73
2022/10/12 03:30:40;;;;;;;8.13;4.90;;;;;;;;;;5072850;28;20037;-73
2022/10/12 03:33:06;;;;;;;6.18;5.50;;;;;;;;;;5074167;28;20059;-73
2022/10/12 03:35:32;;;;;;;6.28;5.03;;;;;;;;;;5073408;28;20043;-72
2022/10/12 03:37:58;;;;;;;8.15;5.30;;;;;;;;;;5073693;28;20518;-73
2022/10/12 03:40:24;;;;;;;9.10;5.45;;;;;;;;;;5074555;28;20055;-73
2022/10/12 03:42:50;;;;;;;7.80;5.25;;;;;;;;;;5074683;28;20219;-73
2022/10/12 03:45:16;;;;;;;8.20;6.00;;;;;;;;;;5073959;28;20064;-73
2022/10/12 03:47:43;;;;;;;7.72;5.60;;;;;;;;;;5074415;28;20535;-73
2022/10/12 03:50:09;;;;;;;8.68;6.18;;;;;;;;;;5074131;28;20041;-73
2022/10/12 03:52:35;;;;;;;6.13;5.43;;;;;;;;;;5074118;28;20476;-73
2022/10/12 03:55:01;;;;;;;5.85;5.25;;;;;;;;;;5073647;28;20056;-73
2022/10/12 03:57:27;;;;;;;9.55;5.28;;;;;;;;;;5074175;28;20036;-73
2022/10/12 03:59:53;;;;;;;7.75;5.63;;;;;;;;;;5073632;28;20123;-73
2022/10/12 04:02:20;;;;;;;7.28;5.07;;;;;;;;;;5074692;28;20639;-73
2022/10/12 04:04:46;;;;;;;7.68;5.95;;;;;;;;;;5074010;28;20119;-73
2022/10/12 04:07:12;;;;;;;7.60;5.07;;;;;;;;;;5074585;28;20045;-73
2022/10/12 04:09:38;;;;;;;7.70;5.45;;;;;;;;;;5073985;28;20040;-73
2022/10/12 04:12:04;;;;;;;7.35;5.35;;;;;;;;;;5073615;28;20049;-73
2022/10/12 04:14:30;;;;;;;9.50;5.20;;;;;;;;;;5073898;28;20557;-73
2022/10/12 04:16:57;;;;;;;6.05;5.18;;;;;;;;;;5073923;28;20063;-73
2022/10/12 04:19:23;;;;;;;6.95;5.22;;;;;;;;;;5077112;28;20037;-73
2022/10/12 04:21:49;;;;;;;7.00;5.60;;;;;;;;;;5077594;28;20036;-73
2022/10/12 04:24:15;;;;;;;5.38;4.88;;;;;;;;;;5077827;28;20040;-73
2022/10/12 04:26:41;;;;;;;8.13;5.50;;;;;;;;;;5077739;28;20396;-72
2022/10/12 04:29:07;;;;;;;9.68;5.57;;;;;;;;;;5077326;28;20480;-73
2022/10/12 04:31:33;;;;;;;11.00;5.63;;;;;;;;;;5077359;28;20040;-73
2022/10/12 04:33:59;;;;;;;6.28;5.65;;;;;;;;;;5077526;28;20033;-73
2022/10/12 04:36:26;;;;;;;9.38;5.60;;;;;;;;;;5077929;28;20048;-73
2022/10/12 04:38:53;;;;;;;10.73;5.88;;;;;;;;;;5077029;28;20033;-73
2022/10/12 04:41:19;;;;;;;9.07;5.30;;;;;;;;;;5076998;28;20499;-73
2022/10/12 04:43:45;;;;;;;8.77;5.72;;;;;;;;;;5076447;28;20044;-73
2022/10/12 04:46:11;;;;;;;9.90;5.55;;;;;;;;;;5077450;28;20114;-73
2022/10/12 04:48:38;;;;;;;8.68;6.20;;;;;;;;;;5077020;28;20036;-73
2022/10/12 04:51:05;;;;;;;8.70;5.90;;;;;;;;;;5076808;28;20037;-73
2022/10/12 04:53:31;;;;;;;11.35;6.45;;;;;;;;;;5076349;28;20097;-73
2022/10/12 04:55:57;;;;;;;9.02;5.75;;;;;;;;;;5076428;28;20056;-73
2022/10/12 04:58:23;;;;;;;8.23;7.13;;;;;;;;;;5076509;28;20047;-73
2022/10/12 05:00:50;;;;;;;7.00;6.30;;;;;;;;;;5076418;28;20037;-73
2022/10/12 05:03:16;;;;;;;10.32;6.65;;;;;;;;;;5076413;28;20197;-73
2022/10/12 05:05:43;;;;;;;10.25;6.95;;;;;;;;;;5077231;28;20044;-72
2022/10/12 05:08:10;;;;;;;11.48;6.18;;;;;;;;;;5074501;28;20497;-72
2022/10/12 05:10:37;;;;;;;6.43;5.40;;;;;;;;;;5075027;28;20040;-72
2022/10/12 05:13:03;;;;;;;6.75;5.80;;;;;;;;;;5074761;28;20071;-73
2022/10/12 05:15:29;;;;;;;8.32;5.72;;;;;;;;;;5072599;28;20036;-71
2022/10/12 05:17:55;;;;;;;8.60;5.68;;;;;;;;;;5073806;28;20041;-72
2022/10/12 05:20:22;;;;;;;5.40;4.90;;;;;;;;;;5074424;28;20040;-73
2022/10/12 05:22:48;;;;;;;11.57;6.53;;;;;;;;;;5074373;28;20052;-73
2022/10/12 05:25:14;;;;;;;6.63;5.47;;;;;;;;;;5072535;28;20134;-72
2022/10/12 05:27:40;;;;;;;13.43;5.68;;;;;;;;;;5073875;28;20049;-72
2022/10/12 05:30:07;;;;;;;6.32;4.95;;;;;;;;;;5073702;28;20036;-72
2022/10/12 05:32:33;;;;;;;12.68;7.20;;;;;;;;;;5072091;28;20048;-75
2022/10/12 05:34:59;;;;;;;7.68;5.03;;;;;;;;;;5074634;28;20135;-73
2022/10/12 05:37:25;;;;;;;7.30;5.10;;;;;;;;;;5074787;28;20470;-70
2022/10/12 05:39:51;;;;;;;7.47;5.10;;;;;;;;;;5074454;28;20407;-71
2022/10/12 05:42:18;;;;;;;7.82;5.93;;;;;;;;;;5075099;28;20127;-71
2022/10/12 05:44:44;;;;;;;5.72;5.15;;;;;;;;;;5075759;28;20043;-71
2022/10/12 05:47:10;;;;;;;7.72;5.22;;;;;;;;;;5073911;28;20450;-71
2022/10/12 05:49:36;;;;;;;10.73;5.70;;;;;;;;;;5075834;28;20047;-71
2022/10/12 05:52:02;;;;;;;5.75;5.15;;;;;;;;;;5075762;28;20105;-71
2022/10/12 05:54:28;;;;;;;6.22;4.85;;;;;;;;;;5075798;28;20039;-70
2022/10/12 05:56:54;;;;;;;8.18;5.38;;;;;;;;;;5075388;28;20135;-71
2022/10/12 05:59:21;;;;;;;6.85;5.15;;;;;;;;;;5062056;28;20541;-71
2022/10/12 06:01:48;;;;;;;6.97;5.45;;;;;;;;;;5074237;28;20036;-72
2022/10/12 06:04:14;;;;;;;7.88;5.15;;;;;;;;;;5073645;28;20533;-72
2022/10/12 06:06:40;;;;;;;6.13;4.88;;;;;;;;;;5074221;28;20036;-72
2022/10/12 06:09:07;;;;;;;10.38;5.68;;;;;;;;;;5075658;28;20036;-71
2022/10/12 06:11:33;;;;;;;6.28;5.45;;;;;;;;;;5073781;28;20147;-71
2022/10/12 06:13:59;;;;;;;7.40;5.60;;;;;;;;;;5074309;28;20044;-71
2022/10/12 06:16:25;;;;;;;6.63;5.35;;;;;;;;;;5074400;28;20391;-71
2022/10/12 06:18:51;;;;;;;6.68;5.20;;;;;;;;;;5074317;28;20056;-71
2022/10/12 06:21:17;;;;;;;9.25;5.30;;;;;;;;;;5074036;28;20041;-71
2022/10/12 06:23:43;;;;;;;6.85;5.13;;;;;;;;;;5074255;28;20477;-71
2022/10/12 06:26:10;;;;;;;7.35;5.05;;;;;;;;;;5072553;28;20036;-71
2022/10/12 06:28:36;;;;;;;6.93;4.80;;;;;;;;;;5071875;28;20048;-71
2022/10/12 06:31:02;;;;;;;6.05;5.00;;;;;;;;;;5073874;28;20063;-71
2022/10/12 06:33:28;;;;;;;9.55;4.88;;;;;;;;;;5073888;28;20525;-71
2022/10/12 06:35:55;;;;;;;7.38;4.78;;;;;;;;;;5072932;28;20518;-72
2022/10/12 06:38:21;;;;;;;10.82;4.60;;;;;;;;;;5074615;28;20131;-70
2022/10/12 06:40:47;;;;;;;8.48;5.00;;;;;;;;;;5073933;28;20094;-71
2022/10/12 06:43:13;;;;;;;6.60;4.43;;;;;;;;;;5073164;28;20048;-71
2022/10/12 06:45:40;;;;;;;15.40;4.72;;;;;;;;;;5073441;28;20518;-72
2022/10/12 06:48:06;;;;;;;5.60;4.38;;;;;;;;;;5073690;28;20040;-72
2022/10/12 06:50:33;;;;;;;9.45;4.90;;;;;;;;;;5072938;28;20037;-72
2022/10/12 06:52:59;;;;;;;6.68;4.55;;;;;;;;;;5073509;28;20053;-71
2022/10/12 06:55:25;;;;;;;7.47;4.75;;;;;;;;;;5074649;28;20051;-71
2022/10/12 06:57:51;;;;;;;7.78;4.78;;;;;;;;;;5074550;28;20036;-71
2022/10/12 07:00:17;;;;;;;7.28;4.75;;;;;;;;;;5074394;28;20097;-71
2022/10/12 07:02:43;;;;;;;7.57;4.90;;;;;;;;;;5074573;28;20048;-71
2022/10/12 07:05:10;;;;;;;8.93;4.15;;;;;;;;;;5074371;28;20036;-71
2022/10/12 07:07:37;;;;;;;7.47;4.80;;;;;;;;;;5074615;28;20120;-71
2022/10/12 07:10:04;;;;;;;6.10;4.68;;;;;;;;;;5074027;28;20036;-71
2022/10/12 07:12:30;;;;;;;5.18;3.95;;;;;;;;;;5075073;28;20083;-71
2022/10/12 07:14:57;;;;;;;7.50;4.72;;;;;;;;;;5074403;28;20097;-71
2022/10/12 07:17:23;;;;;;;5.55;4.20;;;;;;;;;;5074749;28;20378;-71
2022/10/12 07:19:50;;;;;;;5.22;4.32;;;;;;;;;;5074220;28;20049;-71
2022/10/12 07:22:16;;;;;;;5.30;4.00;;;;;;;;;;5074177;28;20113;-71
2022/10/12 07:24:42;;;;;;;12.27;4.40;;;;;;;;;;5074436;28;20032;-71
2022/10/12 07:27:09;;;;;;;5.82;3.88;;;;;;;;;;5074428;28;20048;-71
2022/10/12 07:29:36;;;;;;;7.72;4.10;;;;;;;;;;5074138;28;20043;-71
2022/10/12 07:32:03;;;;;;;12.63;4.32;;;;;;;;;;5074002;28;20056;-71
2022/10/12 07:34:29;;;;;;;8.82;4.50;;;;;;;;;;5074202;28;20085;-71
2022/10/12 07:36:56;;;;;;;7.28;4.43;;;;;;;;;;5074521;28;20106;-71
2022/10/12 07:39:23;;;;;;;10.65;4.78;;;;;;;;;;5074289;28;20119;-71
2022/10/12 07:41:49;;;;;;;8.02;5.00;;;;;;;;;;5074154;28;20145;-71
2022/10/12 07:44:16;;;;;;;8.75;5.10;;;;;;;;;;5074233;28;20051;-71
2022/10/12 07:46:42;;;;;;;7.15;4.57;;;;;;;;;;5074762;28;20079;-71
2022/10/12 07:49:08;;;;;;;5.60;3.83;;;;;;;;;;5074367;28;20533;-71
2022/10/12 07:51:35;;;;;;;9.63;4.25;;;;;;;;;;5071887;28;20119;-71
2022/10/12 07:54:01;;;;;;;8.38;4.30;;;;;;;;;;5076103;28;20053;-71
2022/10/12 07:56:27;;;;;;;6.80;4.03;;;;;;;;;;5077927;28;20408;-71
2022/10/12 07:58:55;;;;;;;9.68;4.35;;;;;;;;;;5078207;28;20044;-71
2022/10/12 08:01:23;;;;;;;11.65;4.45;;;;;;;;;;5077647;28;20415;-71
2022/10/12 08:03:50;;;;;;;12.43;4.75;;;;;;;;;;5078060;28;20044;-71
2022/10/12 08:06:17;;;;;;;9.50;4.20;;;;;;;;;;5077953;28;20507;-71
2022/10/12 08:08:43;;;;;;;10.23;3.92;;;;;;;;;;5077864;28;20037;-71
2022/10/12 08:11:11;;;;;;;6.85;4.40;;;;;;;;;;5078676;28;20036;-71
2022/10/12 08:13:39;;;;;;;11.57;5.07;;;;;;;;;;5077518;28;20055;-71
2022/10/12 08:16:06;;;;;;;6.70;4.47;;;;;;;;;;5077749;28;20044;-71
2022/10/12 08:18:32;;;;;;;7.55;4.07;;;;;;;;;;5077999;28;20119;-71
2022/10/12 08:20:59;;;;;;;8.05;3.80;;;;;;;;;;5078246;28;20032;-71
2022/10/12 08:23:25;;;;;;;6.38;3.53;;;;;;;;;;5078036;28;20066;-71
2022/10/12 08:25:55;;;;;;;4.68;4.07;;;;;;;;;;5077847;28;20051;-71
2022/10/12 08:28:21;;;;;;;6.07;4.07;;;;;;;;;;5077569;28;20040;-71
2022/10/12 08:30:47;;;;;;;5.10;3.60;;;;;;;;;;5077770;28;20048;-71
2022/10/12 08:33:14;;;;;;;8.80;3.53;;;;;;;;;;5077933;28;20048;-71
2022/10/12 08:35:41;;;;;;;9.02;4.07;;;;;;;;;;5077373;28;20040;-71
2022/10/12 08:38:08;;;;;;;5.68;3.90;;;;;;;;;;5077643;28;20041;-71
2022/10/12 08:40:36;;;;;;;6.85;3.80;;;;;;;;;;5078092;28;20032;-71
2022/10/12 08:43:30;;;;;;;6.03;3.75;;;;;;;;;;5077985;28;20049;-71
2022/10/12 08:45:57;;;;;;;7.80;3.75;;;;;;;;;;5077592;28;20115;-71
2022/10/12 08:48:27;;;;;;;6.15;3.80;;;;;;;;;;5077401;28;20040;-71
2022/10/12 08:51:04;;;;;;;7.25;3.30;;;;;;;;;;5077314;28;20043;-71
2022/10/12 08:53:35;;;;;;;5.53;2.95;;;;;;;;;;5077490;28;20121;-71
2022/10/12 08:56:01;;;;;;;6.28;2.90;;;;;;;;;;5076868;28;20057;-71
2022/10/12 08:58:31;;;;;;;8.15;3.60;;;;;;;;;;5076800;28;20040;-71
2022/10/12 09:01:00;;;;;;;10.27;3.50;;;;;;;;;;5076654;28;20051;-71
2022/10/12 09:03:38;;;;;;;7.47;3.45;;;;;;;;;;5077121;28;20055;-71
2022/10/12 09:06:18;;;;;;;9.20;2.90;;;;;;;;;;5076305;28;20040;-71
2022/10/12 09:08:50;;;;;;;14.73;3.00;;;;;;;;;;5076958;28;20064;-71
2022/10/12 09:11:31;;;;;;;6.53;2.85;;;;;;;;;;5076967;28;20521;-71
2022/10/12 09:14:00;;;;;;;11.77;3.50;;;;;;;;;;5076739;28;20083;-71
2022/10/12 09:16:28;;;;;;;11.48;3.28;;;;;;;;;;5076686;28;20048;-71
2022/10/12 09:18:56;;;;;;;12.68;3.58;;;;;;;;;;5076957;28;20032;-71
2022/10/12 09:21:24;;;;;;;15.00;3.22;;;;;;;;;;5076263;28;20491;-71
2022/10/12 09:23:50;;;;;;;12.18;3.45;;;;;;;;;;5076754;28;20048;-71
2022/10/12 09:26:21;;;;;;;4.07;2.92;;;;;;;;;;5076744;28;20064;-71
2022/10/12 09:28:57;;;;;;;14.95;3.35;;;;;;;;;;5076163;28;20040;-71
2022/10/12 09:31:38;;;;;;;9.52;3.33;;;;;;;;;;5076390;28;20090;-71
2022/10/12 09:34:06;;;;;;;7.07;3.00;;;;;;;;;;5075918;28;20051;-71
2022/10/12 09:36:33;;;;;;;11.25;3.60;;;;;;;;;;5075957;28;20581;-71
2022/10/12 09:39:02;;;;;;;9.07;2.90;;;;;;;;;;5076200;28;20036;-71
2022/10/12 09:41:40;;;;;;;10.63;2.92;;;;;;;;;;5076171;28;20051;-71
2022/10/12 09:44:07;;;;;;;8.80;2.40;;;;;;;;;;5076197;28;20044;-71
2022/10/12 09:46:41;;;;;;;5.22;2.67;;;;;;;;;;5076037;28;20047;-71
2022/10/12 09:49:08;;;;;;;12.52;4.65;;;;;;;;;;5075930;28;20032;-71
2022/10/12 09:51:34;;;;;;;10.45;4.25;;;;;;;;;;5075936;28;20040;-71
2022/10/12 09:54:02;;;;;;;8.77;4.45;;;;;;;;;;5076460;28;20041;-71
2022/10/12 09:56:38;;;;;;;11.75;3.33;;;;;;;;;;5076554;28;20471;-71
2022/10/12 09:59:07;;;;;;;6.43;2.97;;;;;;;;;;5075594;28;20043;-71
2022/10/12 10:01:34;;;;;;;7.97;2.70;;;;;;;;;;5076338;28;20190;-71
2022/10/12 10:04:20;;;;;;;9.55;3.08;;;;;;;;;;5076241;28;20072;-72
2022/10/12 10:06:47;;;;;;;8.77;3.05;;;;;;;;;;5061915;28;20052;-71
2022/10/12 10:09:33;;;;;;;5.97;2.78;;;;;;;;;;5075759;28;20471;-71
2022/10/12 10:12:11;;;;;;;11.35;3.53;;;;;;;;;;5076270;28;20124;-71
2022/10/12 10:14:38;;;;;;;6.50;2.75;;;;;;;;;;5075880;28;20051;-71
2022/10/12 10:17:04;;;;;;;7.45;2.72;;;;;;;;;;5075127;28;20039;-71
2022/10/12 10:19:30;;;;;;;9.90;2.58;;;;;;;;;;5075438;28;20040;-71
2022/10/12 10:22:03;;;;;;;10.77;3.30;;;;;;;;;;5075627;28;20043;-71
2022/10/12 10:24:31;;;;;;;9.23;2.40;;;;;;;;;;5075580;28;20044;-71
2022/10/12 10:26:59;;;;;;;9.68;2.50;;;;;;;;;;5075271;28;20040;-71
2022/10/12 10:29:36;;;;;;;11.32;2.80;;;;;;;;;;5075469;28;20070;-71
2022/10/12 10:32:26;;;;;;;7.18;2.15;;;;;;;;;;5075364;28;20040;-71
2022/10/12 10:35:01;;;;;;;6.88;2.40;;;;;;;;;;5075120;28;20116;-71
2022/10/12 10:37:28;;;;;;;7.47;2.90;;;;;;;;;;5075598;28;20044;-71
2022/10/12 10:39:55;;;;;;;5.50;2.70;;;;;;;;;;5075330;28;20033;-71
2022/10/12 10:42:24;;;;;;;8.52;3.10;;;;;;;;;;5076395;28;20414;-73
2022/10/12 10:44:51;;;;;;;4.32;2.95;;;;;;;;;;5074893;28;20045;-72
2022/10/12 10:47:18;;;;;;;8.07;3.38;;;;;;;;;;5074427;28;20119;-72
2022/10/12 10:49:45;;;;;;;7.97;3.03;;;;;;;;;;5074379;28;20091;-72
2022/10/12 10:52:22;;;;;;;9.45;3.72;;;;;;;;;;5074546;28;20138;-72
2022/10/12 10:54:49;;;;;;;7.38;2.92;;;;;;;;;;5074732;28;20090;-72
2022/10/12 10:57:21;;;;;;;7.75;3.13;;;;;;;;;;5075063;28;20033;-72
2022/10/12 10:59:50;;;;;;;10.90;3.15;;;;;;;;;;5073883;28;20070;-72
2022/10/12 11:02:28;;;;;;;7.35;2.95;;;;;;;;;;5065385;28;20044;-72
2022/10/12 11:04:58;;;;;;;8.13;2.70;;;;;;;;;;5074518;28;20040;-72
2022/10/12 11:07:30;;;;;;;7.40;3.22;;;;;;;;;;5074639;28;20037;-72
2022/10/12 11:10:01;;;;;;;7.65;3.03;;;;;;;;;;5074603;28;20063;-72
2022/10/12 11:12:30;;;;;;;10.20;3.30;;;;;;;;;;5073885;28;20060;-72
2022/10/12 11:14:59;;;;;;;7.68;3.13;;;;;;;;;;5074106;28;20048;-72
2022/10/12 11:17:31;;;;;;;8.05;2.50;;;;;;;;;;5074423;28;20040;-72
2022/10/12 11:19:58;;;;;;;7.50;2.50;;;;;;;;;;5070813;28;20068;-74
2022/10/12 11:22:39;;;;;;;8.75;2.50;;;;;;;;;;5074358;28;20044;-74
2022/10/12 11:25:05;;;;;;;;;;;;;;;;;;5074842;28;20119;-73
2022/10/12 11:27:36;;;;;;;10.63;3.05;;;;;;;;;;5072044;28;19912;-72
2022/10/12 11:30:04;;;;;;;7.57;2.70;;;;;;;;;;5076027;28;20059;-73
2022/10/12 11:32:37;;;;;;;8.30;3.08;;;;;;;;;;5075025;28;20060;-72
2022/10/12 11:35:05;;;;;;;9.48;2.53;;;;;;;;;;5074736;28;20044;-73
2022/10/12 11:37:34;;;;;;;8.80;2.75;;;;;;;;;;5074326;28;20041;-73
2022/10/12 11:40:02;;;;;;;11.50;3.17;;;;;;;;;;5074319;28;20047;-72
2022/10/12 11:42:32;;;;;;;8.57;2.63;;;;;;;;;;5075194;28;20102;-70
2022/10/12 11:45:00;;;;;;;6.13;1.92;;;;;;;;;;5073667;28;20422;-73
2022/10/12 11:47:26;;;;;;;7.15;2.25;;;;;;;;;;5080212;28;20043;-70
2022/10/12 11:49:53;;;;;;;9.13;2.15;;;;;;;;;;5074477;28;20044;-71
2022/10/12 11:52:20;;;;;;;6.00;2.08;;;;;;;;;;5073988;28;20048;-70
2022/10/12 11:55:00;;;;;;;6.57;1.90;;;;;;;;;;5063948;28;20040;-70
2022/10/12 11:57:30;;;;;;;3.40;2.08;;;;;;;;;;5070959;28;20147;-71
2022/10/12 12:00:05;;;;;;;4.13;1.77;;;;;;;;;;5073488;28;20515;-72
2022/10/12 12:02:33;;;;;;;4.60;1.92;;;;;;;;;;5073209;28;20053;-70
2022/10/12 12:05:01;;;;;;;9.35;2.55;;;;;;;;;;5073757;28;20403;-75
2022/10/12 12:07:42;;;;;;;7.55;1.92;;;;;;;;;;5073483;28;20098;-71
2022/10/12 12:10:26;;;;;;;6.85;2.20;;;;;;;;;;5072863;28;20040;-71
2022/10/12 12:13:16;;;;;;;6.15;1.90;;;;;;;;;;5067592;28;20060;-72
2022/10/12 12:15:42;;;;;;;7.75;2.58;;;;;;;;;;5071875;28;20051;-72
2022/10/12 12:18:19;;;;;;;4.55;2.13;;;;;;;;;;5072894;28;20101;-71
2022/10/12 12:20:45;;;;;;;9.98;2.60;;;;;;;;;;5072016;28;20036;-71
2022/10/12 12:23:22;;;;;;;4.93;2.22;;;;;;;;;;5072203;28;20052;-71
2022/10/12 12:26:03;;;;;;;4.45;2.35;;;;;;;;;;5069908;28;20056;-71
2022/10/12 12:28:31;;;;;;;9.70;3.35;;;;;;;;;;5070056;28;20450;-71
2022/10/12 12:30:59;;;;;;;11.75;3.10;;;;;;;;;;5069063;28;20044;-72
2022/10/12 12:33:30;;;;;;;8.43;2.80;;;;;;;;;;5071891;28;20102;-72
2022/10/12 12:35:59;;;;;;;5.63;3.10;;;;;;;;;;5057671;28;20044;-72
2022/10/12 12:38:28;;;;;;;5.78;2.70;;;;;;;;;;5068052;28;20119;-72
2022/10/12 12:41:05;;;;;;;8.40;3.10;;;;;;;;;;5075924;28;20040;-73
2022/10/12 12:43:31;;;;;;;10.75;3.58;;;;;;;;;;5076939;28;20044;-73
2022/10/12 12:45:57;;;;;;;12.77;3.45;;;;;;;;;;5063576;28;20503;-73
2022/10/12 12:48:38;;;;;;;14.48;3.67;;;;;;;;;;5076865;28;20032;-72
2022/10/12 12:51:14;;;;;;;6.60;2.72;;;;;;;;;;5072684;28;20032;-71
2022/10/12 12:54:00;;;;;;;6.80;4.82;;;;;;;;;;5075279;28;20048;-71
2022/10/12 12:56:47;;;;;;;5.00;4.18;;;;;;;;;;5076663;28;20060;-71
2022/10/12 12:59:13;;;;;;;2.28;1.40;;;;;;;;;;5055227;28;20491;-71
2022/10/12 13:01:45;;;;;;;2.92;1.10;;;;;;;;;;5076851;28;20040;-71
2022/10/12 13:04:17;;;;;;;4.63;1.77;;;;;;;;;;5076096;28;20041;-71
2022/10/12 13:07:19;;;;;;;4.72;2.40;;;;;;;;;;5076525;28;20068;-71
2022/10/12 13:10:01;;;;;;;5.05;3.53;;;;;;;;;;5034195;28;20523;-71
2022/10/12 13:12:33;;;;;;;7.13;4.00;;;;;;;;;;5072243;28;20048;-71
2022/10/12 13:15:02;;;;;;;6.35;3.05;;;;;;;;;;5076551;28;20036;-71
2022/10/12 13:17:32;;;;;;;6.25;3.55;;;;;;;;;;5076299;28;20032;-71
2022/10/12 13:20:15;;;;;;;10.30;2.92;;;;;;;;;;5076315;28;20565;-70
2022/10/12 13:22:41;;;;;;;6.43;2.40;;;;;;;;;;5076932;28;20056;-71
2022/10/12 13:25:12;;;;;;;8.05;2.67;;;;;;;;;;5075883;28;20093;-71
2022/10/12 13:27:52;;;;;;;5.70;2.92;;;;;;;;;;5077062;28;20123;-71
2022/10/12 13:30:30;;;;;;;6.43;2.45;;;;;;;;;;5076444;28;20043;-71
2022/10/12 13:33:06;;;;;;;5.90;2.40;;;;;;;;;;5076178;28;20048;-71
2022/10/12 13:35:41;;;;;;;24.88;13.18;;;;;;;;;;5076217;28;20613;-71
2022/10/12 13:38:13;;;;;;;10.38;6.25;;;;;;;;;;5076005;28;20041;-71
2022/10/12 13:40:41;;;;;;;6.07;3.97;;;;;;;;;;5076220;28;20048;-71
2022/10/12 13:43:17;;;;;;;8.82;3.08;;;;;;;;;;5076019;28;20048;-71
2022/10/12 13:45:45;;;;;;;7.30;3.05;;;;;;;;;;5075807;28;20435;-71
2022/10/12 13:48:16;;;;;;;4.82;2.40;;;;;;;;;;5076015;28;20075;-71
2022/10/12 13:50:50;;;;;;;8.40;2.75;;;;;;;;;;5075637;28;20045;-71
2022/10/12 13:53:16;;;;;;;5.45;2.53;;;;;;;;;;5076146;28;20157;-71
2022/10/12 13:55:42;;;;;;;6.68;2.63;;;;;;;;;;5073714;28;20048;-71
2022/10/12 13:58:25;;;;;;;6.03;3.03;;;;;;;;;;5073205;28;20051;-71
2022/10/12 14:00:52;;;;;;;5.00;3.17;;;;;;;;;;5075254;28;20037;-71
2022/10/12 14:03:23;;;;;;;5.88;2.70;;;;;;;;;;5074990;28;20074;-71
2022/10/12 14:05:50;;;;;;;4.70;2.53;;;;;;;;;;5075766;28;20124;-71
2022/10/12 14:08:21;;;;;;;3.45;2.33;;;;;;;;;;5074863;28;20052;-71
2022/10/12 14:10:48;;;;;;;8.65;4.55;;;;;;;;;;5075876;28;20040;-71
2022/10/12 14:13:15;;;;;;;5.80;2.50;;;;;;;;;;5074986;28;20490;-71
2022/10/12 14:15:41;;;;;;;5.75;3.08;;;;;;;;;;5075486;28;20191;-71
2022/10/12 14:18:26;;;;;;;4.65;2.63;;;;;;;;;;5075147;28;20041;-71
2022/10/12 14:21:03;;;;;;;7.15;2.58;;;;;;;;;;5075131;28;20040;-71
2022/10/12 14:23:29;;;;;;;6.63;2.60;;;;;;;;;;5075838;28;20115;-71
2022/10/12 14:25:56;;;;;;;6.88;2.13;;;;;;;;;;5075030;28;20044;-71
2022/10/12 14:28:34;;;;;;;6.20;2.70;;;;;;;;;;5074818;28;20047;-71
2022/10/12 14:31:00;;;;;;;5.63;2.10;;;;;;;;;;5075781;28;20040;-71
2022/10/12 14:33:27;;;;;;;6.15;2.50;;;;;;;;;;5075621;28;20083;-71
2022/10/12 14:36:11;;;;;;;6.35;2.78;;;;;;;;;;5075117;28;20079;-71
2022/10/12 14:38:43;;;;;;;8.05;2.92;;;;;;;;;;5074961;28;20158;-71
2022/10/12 14:41:28;;;;;;;8.68;2.83;;;;;;;;;;5074746;28;20045;-71
2022/10/12 14:44:03;;;;;;;8.38;2.50;;;;;;;;;;5075135;28;20518;-71
2022/10/12 14:46:29;;;;;;;10.77;2.60;;;;;;;;;;5075273;28;20042;-72
2022/10/12 14:48:55;;;;;;;5.85;2.63;;;;;;;;;;5074194;28;20135;-73
2022/10/12 14:51:21;;;;;;;3.95;2.30;;;;;;;;;;5065465;28;20135;-71
2022/10/12 14:53:57;;;;;;;4.97;2.33;;;;;;;;;;5064058;28;20048;-72